sensor_id;sensor_type;location;lat;lon;timestamp;P1;durP1;ratioP1;P2;durP2;ratioP2
34064;SDS011;20339;49.754;20.158;2024-01-10T00:01:08;52.20;;;24.10;;
34064;SDS011;20339;49.754;20.158;2024-01-10T00:03:48;62.60;;;25.40;;
34064;SDS011;20339;49.754;20.158;2024-01-10T00:06:20;51.10;;;23.90;;
34064;SDS011;20339;49.754;20.158;2024-01-10T00:08:54;40.70;;;16.20;;
34064;SDS011;20339;49.754;20.158;2024-01-10T00:11:26;53.60;;;26.30;;
34064;SDS011;20339;49.754;20.158;2024-01-10T00:14:01;68.40;;;29.60;;
34064;SDS011;20339;49.754;20.158;2024-01-10T00:16:33;63.00;;;28.40;;
34064;SDS011;20339;49.754;20.158;2024-01-10T00:19:08;59.20;;;26.30;;
34064;SDS011;20339;49.754;20.158;2024-01-10T00:21:40;56.40;;;24.30;;
34064;SDS011;20339;49.754;20.158;2024-01-10T00:24:12;41.60;;;17.20;;
34064;SDS011;20339;49.754;20.158;2024-01-10T00:26:49;56.10;;;24.80;;
34064;SDS011;20339;49.754;20.158;2024-01-10T00:29:24;59.30;;;24.40;;
34064;SDS011;20339;49.754;20.158;2024-01-10T00:31:56;60.70;;;28.40;;
34064;SDS011;20339;49.754;20.158;2024-01-10T00:34:29;79.10;;;31.80;;
34064;SDS011;20339;49.754;20.158;2024-01-10T00:37:01;70.30;;;29.80;;
34064;SDS011;20339;49.754;20.158;2024-01-10T00:39:36;52.80;;;25.60;;
34064;SDS011;20339;49.754;20.158;2024-01-10T00:42:09;59.60;;;25.80;;
34064;SDS011;20339;49.754;20.158;2024-01-10T00:44:41;59.10;;;27.10;;
34064;SDS011;20339;49.754;20.158;2024-01-10T00:47:13;66.30;;;27.40;;
34064;SDS011;20339;49.754;20.158;2024-01-10T00:49:44;48.20;;;23.40;;
34064;SDS011;20339;49.754;20.158;2024-01-10T00:52:24;46.60;;;20.50;;
34064;SDS011;20339;49.754;20.158;2024-01-10T00:54:59;46.50;;;20.60;;
34064;SDS011;20339;49.754;20.158;2024-01-10T00:57:31;52.80;;;21.20;;
34064;SDS011;20339;49.754;20.158;2024-01-10T01:00:08;46.40;;;19.00;;
34064;SDS011;20339;49.754;20.158;2024-01-10T01:02:43;36.90;;;17.70;;
34064;SDS011;20339;49.754;20.158;2024-01-10T01:05:22;34.40;;;14.80;;
34064;SDS011;20339;49.754;20.158;2024-01-10T01:07:54;37.60;;;16.70;;
34064;SDS011;20339;49.754;20.158;2024-01-10T01:10:29;29.30;;;13.60;;
34064;SDS011;20339;49.754;20.158;2024-01-10T01:13:01;23.10;;;11.40;;
34064;SDS011;20339;49.754;20.158;2024-01-10T01:15:33;26.90;;;12.10;;
34064;SDS011;20339;49.754;20.158;2024-01-10T01:18:06;23.40;;;9.80;;
34064;SDS011;20339;49.754;20.158;2024-01-10T01:20:41;27.30;;;12.50;;
34064;SDS011;20339;49.754;20.158;2024-01-10T01:23:12;26.00;;;13.60;;
34064;SDS011;20339;49.754;20.158;2024-01-10T01:25:44;31.40;;;13.80;;
34064;SDS011;20339;49.754;20.158;2024-01-10T01:28:24;27.00;;;10.30;;
34064;SDS011;20339;49.754;20.158;2024-01-10T01:30:56;38.30;;;16.40;;
34064;SDS011;20339;49.754;20.158;2024-01-10T01:33:29;38.20;;;17.80;;
34064;SDS011;20339;49.754;20.158;2024-01-10T01:36:01;40.40;;;16.20;;
34064;SDS011;20339;49.754;20.158;2024-01-10T01:38:34;48.10;;;21.10;;
34064;SDS011;20339;49.754;20.158;2024-01-10T01:41:07;39.30;;;17.80;;
34064;SDS011;20339;49.754;20.158;2024-01-10T01:43:39;41.60;;;19.70;;
34064;SDS011;20339;49.754;20.158;2024-01-10T01:46:10;61.20;;;25.00;;
34064;SDS011;20339;49.754;20.158;2024-01-10T01:48:41;47.70;;;21.90;;
34064;SDS011;20339;49.754;20.158;2024-01-10T01:51:13;58.80;;;25.10;;
34064;SDS011;20339;49.754;20.158;2024-01-10T01:53:48;40.10;;;19.30;;
34064;SDS011;20339;49.754;20.158;2024-01-10T01:56:22;37.20;;;17.70;;
34064;SDS011;20339;49.754;20.158;2024-01-10T01:58:54;33.60;;;14.40;;
34064;SDS011;20339;49.754;20.158;2024-01-10T02:01:27;25.90;;;11.40;;
34064;SDS011;20339;49.754;20.158;2024-01-10T02:03:59;28.10;;;10.60;;
34064;SDS011;20339;49.754;20.158;2024-01-10T02:06:32;29.50;;;11.70;;
34064;SDS011;20339;49.754;20.158;2024-01-10T02:09:05;26.10;;;11.70;;
34064;SDS011;20339;49.754;20.158;2024-01-10T02:11:38;23.20;;;10.20;;
34064;SDS011;20339;49.754;20.158;2024-01-10T02:14:10;17.90;;;8.60;;
34064;SDS011;20339;49.754;20.158;2024-01-10T02:16:43;23.30;;;10.10;;
34064;SDS011;20339;49.754;20.158;2024-01-10T02:19:22;21.60;;;10.30;;
34064;SDS011;20339;49.754;20.158;2024-01-10T02:21:56;19.60;;;8.20;;
34064;SDS011;20339;49.754;20.158;2024-01-10T02:24:29;20.40;;;9.50;;
34064;SDS011;20339;49.754;20.158;2024-01-10T02:27:02;18.90;;;7.80;;
34064;SDS011;20339;49.754;20.158;2024-01-10T02:29:35;20.30;;;8.10;;
34064;SDS011;20339;49.754;20.158;2024-01-10T02:32:09;9.10;;;4.60;;
34064;SDS011;20339;49.754;20.158;2024-01-10T02:34:42;13.60;;;6.20;;
34064;SDS011;20339;49.754;20.158;2024-01-10T02:37:15;16.20;;;6.70;;
34064;SDS011;20339;49.754;20.158;2024-01-10T02:39:49;16.70;;;6.10;;
34064;SDS011;20339;49.754;20.158;2024-01-10T02:42:22;14.70;;;6.60;;
34064;SDS011;20339;49.754;20.158;2024-01-10T02:44:54;13.00;;;6.50;;
34064;SDS011;20339;49.754;20.158;2024-01-10T02:47:26;10.90;;;5.50;;
34064;SDS011;20339;49.754;20.158;2024-01-10T02:50:01;17.50;;;8.80;;
34064;SDS011;20339;49.754;20.158;2024-01-10T02:52:34;15.20;;;7.50;;
34064;SDS011;20339;49.754;20.158;2024-01-10T02:55:08;18.60;;;8.20;;
34064;SDS011;20339;49.754;20.158;2024-01-10T02:57:40;14.60;;;6.90;;
34064;SDS011;20339;49.754;20.158;2024-01-10T03:00:13;16.90;;;7.90;;
34064;SDS011;20339;49.754;20.158;2024-01-10T03:02:47;18.60;;;6.30;;
34064;SDS011;20339;49.754;20.158;2024-01-10T03:05:22;16.40;;;7.60;;
34064;SDS011;20339;49.754;20.158;2024-01-10T03:07:54;11.60;;;5.10;;
34064;SDS011;20339;49.754;20.158;2024-01-10T03:10:26;18.10;;;9.10;;
34064;SDS011;20339;49.754;20.158;2024-01-10T03:12:58;19.60;;;9.00;;
34064;SDS011;20339;49.754;20.158;2024-01-10T03:15:33;19.90;;;8.60;;
34064;SDS011;20339;49.754;20.158;2024-01-10T03:18:09;19.50;;;8.50;;
34064;SDS011;20339;49.754;20.158;2024-01-10T03:20:41;11.10;;;4.50;;
34064;SDS011;20339;49.754;20.158;2024-01-10T03:23:13;16.50;;;6.30;;
34064;SDS011;20339;49.754;20.158;2024-01-10T03:25:58;16.20;;;6.60;;
34064;SDS011;20339;49.754;20.158;2024-01-10T03:28:30;14.80;;;7.00;;
34064;SDS011;20339;49.754;20.158;2024-01-10T03:31:02;18.60;;;8.60;;
34064;SDS011;20339;49.754;20.158;2024-01-10T03:33:35;19.90;;;8.40;;
34064;SDS011;20339;49.754;20.158;2024-01-10T03:36:15;10.60;;;5.40;;
34064;SDS011;20339;49.754;20.158;2024-01-10T03:38:50;17.10;;;7.70;;
34064;SDS011;20339;49.754;20.158;2024-01-10T03:41:21;14.50;;;6.60;;
34064;SDS011;20339;49.754;20.158;2024-01-10T03:43:53;19.90;;;8.60;;
34064;SDS011;20339;49.754;20.158;2024-01-10T03:46:28;9.90;;;3.70;;
34064;SDS011;20339;49.754;20.158;2024-01-10T03:49:00;15.10;;;6.80;;
34064;SDS011;20339;49.754;20.158;2024-01-10T03:51:32;12.30;;;5.60;;
34064;SDS011;20339;49.754;20.158;2024-01-10T03:54:04;14.30;;;6.70;;
34064;SDS011;20339;49.754;20.158;2024-01-10T03:56:36;13.10;;;6.00;;
34064;SDS011;20339;49.754;20.158;2024-01-10T03:59:08;13.30;;;6.40;;
34064;SDS011;20339;49.754;20.158;2024-01-10T04:01:41;13.10;;;6.70;;
34064;SDS011;20339;49.754;20.158;2024-01-10T04:04:12;15.50;;;7.50;;
34064;SDS011;20339;49.754;20.158;2024-01-10T04:06:44;14.50;;;4.10;;
34064;SDS011;20339;49.754;20.158;2024-01-10T04:09:15;12.30;;;5.50;;
34064;SDS011;20339;49.754;20.158;2024-01-10T04:11:53;11.20;;;5.70;;
34064;SDS011;20339;49.754;20.158;2024-01-10T04:14:24;13.60;;;5.70;;
34064;SDS011;20339;49.754;20.158;2024-01-10T04:16:59;9.80;;;5.70;;
34064;SDS011;20339;49.754;20.158;2024-01-10T04:19:32;14.70;;;6.30;;
34064;SDS011;20339;49.754;20.158;2024-01-10T04:22:03;13.30;;;6.40;;
34064;SDS011;20339;49.754;20.158;2024-01-10T04:24:35;11.90;;;5.70;;
34064;SDS011;20339;49.754;20.158;2024-01-10T04:27:05;13.00;;;6.00;;
34064;SDS011;20339;49.754;20.158;2024-01-10T04:29:36;11.30;;;5.30;;
34064;SDS011;20339;49.754;20.158;2024-01-10T04:32:07;12.30;;;4.90;;
34064;SDS011;20339;49.754;20.158;2024-01-10T04:34:38;10.50;;;5.40;;
34064;SDS011;20339;49.754;20.158;2024-01-10T04:37:09;12.60;;;5.80;;
34064;SDS011;20339;49.754;20.158;2024-01-10T04:39:40;11.30;;;5.30;;
34064;SDS011;20339;49.754;20.158;2024-01-10T04:42:12;10.20;;;4.40;;
34064;SDS011;20339;49.754;20.158;2024-01-10T04:44:43;8.10;;;3.20;;
34064;SDS011;20339;49.754;20.158;2024-01-10T04:47:14;11.30;;;5.00;;
34064;SDS011;20339;49.754;20.158;2024-01-10T04:49:45;14.80;;;6.90;;
34064;SDS011;20339;49.754;20.158;2024-01-10T04:52:18;13.80;;;6.40;;
34064;SDS011;20339;49.754;20.158;2024-01-10T04:54:49;12.70;;;6.90;;
34064;SDS011;20339;49.754;20.158;2024-01-10T04:57:20;16.40;;;6.30;;
34064;SDS011;20339;49.754;20.158;2024-01-10T04:59:52;11.50;;;4.70;;
34064;SDS011;20339;49.754;20.158;2024-01-10T05:02:25;9.30;;;4.40;;
34064;SDS011;20339;49.754;20.158;2024-01-10T05:04:59;6.10;;;3.80;;
34064;SDS011;20339;49.754;20.158;2024-01-10T05:07:31;8.80;;;3.90;;
34064;SDS011;20339;49.754;20.158;2024-01-10T05:10:06;8.50;;;3.80;;
34064;SDS011;20339;49.754;20.158;2024-01-10T05:12:38;12.20;;;6.00;;
34064;SDS011;20339;49.754;20.158;2024-01-10T05:15:10;11.10;;;6.00;;
34064;SDS011;20339;49.754;20.158;2024-01-10T05:17:42;11.60;;;4.50;;
34064;SDS011;20339;49.754;20.158;2024-01-10T05:20:15;14.10;;;6.50;;
34064;SDS011;20339;49.754;20.158;2024-01-10T05:22:47;10.50;;;5.80;;
34064;SDS011;20339;49.754;20.158;2024-01-10T05:25:22;10.70;;;4.90;;
34064;SDS011;20339;49.754;20.158;2024-01-10T05:27:58;14.10;;;6.90;;
34064;SDS011;20339;49.754;20.158;2024-01-10T05:30:31;11.90;;;4.70;;
34064;SDS011;20339;49.754;20.158;2024-01-10T05:33:03;7.50;;;3.40;;
34064;SDS011;20339;49.754;20.158;2024-01-10T05:35:37;8.50;;;4.00;;
34064;SDS011;20339;49.754;20.158;2024-01-10T05:38:10;9.70;;;4.90;;
34064;SDS011;20339;49.754;20.158;2024-01-10T05:40:42;11.70;;;5.10;;
34064;SDS011;20339;49.754;20.158;2024-01-10T05:43:14;12.70;;;5.80;;
34064;SDS011;20339;49.754;20.158;2024-01-10T05:45:57;12.90;;;5.60;;
34064;SDS011;20339;49.754;20.158;2024-01-10T05:48:29;8.40;;;4.50;;
34064;SDS011;20339;49.754;20.158;2024-01-10T05:51:02;11.00;;;5.30;;
34064;SDS011;20339;49.754;20.158;2024-01-10T05:53:35;19.20;;;8.70;;
34064;SDS011;20339;49.754;20.158;2024-01-10T05:56:06;20.50;;;8.70;;
34064;SDS011;20339;49.754;20.158;2024-01-10T05:58:38;18.30;;;7.70;;
34064;SDS011;20339;49.754;20.158;2024-01-10T06:01:10;19.90;;;8.00;;
34064;SDS011;20339;49.754;20.158;2024-01-10T06:03:42;15.50;;;7.40;;
34064;SDS011;20339;49.754;20.158;2024-01-10T06:06:14;14.90;;;6.10;;
34064;SDS011;20339;49.754;20.158;2024-01-10T06:08:49;15.50;;;6.40;;
34064;SDS011;20339;49.754;20.158;2024-01-10T06:11:21;15.40;;;7.20;;
34064;SDS011;20339;49.754;20.158;2024-01-10T06:13:55;16.20;;;7.40;;
34064;SDS011;20339;49.754;20.158;2024-01-10T06:16:32;17.30;;;8.10;;
34064;SDS011;20339;49.754;20.158;2024-01-10T06:19:05;11.90;;;5.40;;
34064;SDS011;20339;49.754;20.158;2024-01-10T06:21:39;16.90;;;6.40;;
34064;SDS011;20339;49.754;20.158;2024-01-10T06:24:11;12.70;;;5.90;;
34064;SDS011;20339;49.754;20.158;2024-01-10T06:26:44;13.60;;;6.40;;
34064;SDS011;20339;49.754;20.158;2024-01-10T06:29:19;16.00;;;6.40;;
34064;SDS011;20339;49.754;20.158;2024-01-10T06:31:54;16.00;;;6.60;;
34064;SDS011;20339;49.754;20.158;2024-01-10T06:34:28;20.30;;;9.60;;
34064;SDS011;20339;49.754;20.158;2024-01-10T06:37:00;14.00;;;6.50;;
34064;SDS011;20339;49.754;20.158;2024-01-10T06:39:33;12.40;;;4.90;;
34064;SDS011;20339;49.754;20.158;2024-01-10T06:42:05;13.30;;;5.20;;
34064;SDS011;20339;49.754;20.158;2024-01-10T06:44:40;14.80;;;5.90;;
34064;SDS011;20339;49.754;20.158;2024-01-10T06:47:11;13.00;;;5.80;;
34064;SDS011;20339;49.754;20.158;2024-01-10T06:49:42;15.50;;;6.80;;
34064;SDS011;20339;49.754;20.158;2024-01-10T06:52:14;11.00;;;5.00;;
34064;SDS011;20339;49.754;20.158;2024-01-10T06:54:49;9.60;;;3.70;;
34064;SDS011;20339;49.754;20.158;2024-01-10T06:57:22;7.80;;;3.90;;
34064;SDS011;20339;49.754;20.158;2024-01-10T06:59:55;7.00;;;3.00;;
34064;SDS011;20339;49.754;20.158;2024-01-10T07:02:26;22.50;;;10.40;;
34064;SDS011;20339;49.754;20.158;2024-01-10T07:04:57;17.80;;;8.70;;
34064;SDS011;20339;49.754;20.158;2024-01-10T07:07:29;22.40;;;9.70;;
34064;SDS011;20339;49.754;20.158;2024-01-10T07:09:59;22.30;;;10.00;;
34064;SDS011;20339;49.754;20.158;2024-01-10T07:12:34;20.20;;;7.90;;
34064;SDS011;20339;49.754;20.158;2024-01-10T07:15:06;15.70;;;7.00;;
34064;SDS011;20339;49.754;20.158;2024-01-10T07:17:39;14.50;;;6.50;;
34064;SDS011;20339;49.754;20.158;2024-01-10T07:20:12;18.10;;;7.60;;
34064;SDS011;20339;49.754;20.158;2024-01-10T07:22:45;14.70;;;6.10;;
34064;SDS011;20339;49.754;20.158;2024-01-10T07:25:19;13.70;;;7.20;;
34064;SDS011;20339;49.754;20.158;2024-01-10T07:27:56;13.60;;;7.40;;
34064;SDS011;20339;49.754;20.158;2024-01-10T07:30:29;11.40;;;5.70;;
34064;SDS011;20339;49.754;20.158;2024-01-10T07:33:07;9.30;;;5.30;;
34064;SDS011;20339;49.754;20.158;2024-01-10T07:35:40;14.50;;;7.10;;
34064;SDS011;20339;49.754;20.158;2024-01-10T07:38:12;13.80;;;4.50;;
34064;SDS011;20339;49.754;20.158;2024-01-10T07:40:43;12.20;;;6.30;;
34064;SDS011;20339;49.754;20.158;2024-01-10T07:43:21;9.00;;;4.60;;
34064;SDS011;20339;49.754;20.158;2024-01-10T07:45:54;9.60;;;4.90;;
34064;SDS011;20339;49.754;20.158;2024-01-10T07:48:31;8.00;;;4.60;;
34064;SDS011;20339;49.754;20.158;2024-01-10T07:51:05;16.20;;;7.50;;
34064;SDS011;20339;49.754;20.158;2024-01-10T07:53:37;13.00;;;6.60;;
34064;SDS011;20339;49.754;20.158;2024-01-10T07:56:09;13.70;;;6.90;;
34064;SDS011;20339;49.754;20.158;2024-01-10T07:58:41;13.30;;;7.80;;
34064;SDS011;20339;49.754;20.158;2024-01-10T08:01:12;11.40;;;4.90;;
34064;SDS011;20339;49.754;20.158;2024-01-10T08:03:44;11.20;;;6.50;;
34064;SDS011;20339;49.754;20.158;2024-01-10T08:06:17;16.00;;;7.00;;
34064;SDS011;20339;49.754;20.158;2024-01-10T08:08:51;12.50;;;5.90;;
34064;SDS011;20339;49.754;20.158;2024-01-10T08:11:23;12.90;;;5.70;;
34064;SDS011;20339;49.754;20.158;2024-01-10T08:13:58;12.20;;;6.20;;
34064;SDS011;20339;49.754;20.158;2024-01-10T08:16:30;9.60;;;5.80;;
34064;SDS011;20339;49.754;20.158;2024-01-10T08:19:02;13.70;;;7.00;;
34064;SDS011;20339;49.754;20.158;2024-01-10T08:21:38;11.60;;;6.00;;
34064;SDS011;20339;49.754;20.158;2024-01-10T08:24:10;9.20;;;4.80;;
34064;SDS011;20339;49.754;20.158;2024-01-10T08:26:42;12.50;;;6.40;;
34064;SDS011;20339;49.754;20.158;2024-01-10T08:29:14;14.80;;;7.40;;
34064;SDS011;20339;49.754;20.158;2024-01-10T08:32:00;11.40;;;5.40;;
34064;SDS011;20339;49.754;20.158;2024-01-10T08:34:32;13.90;;;6.50;;
34064;SDS011;20339;49.754;20.158;2024-01-10T08:37:07;12.80;;;6.80;;
34064;SDS011;20339;49.754;20.158;2024-01-10T08:39:39;8.20;;;3.50;;
34064;SDS011;20339;49.754;20.158;2024-01-10T08:42:10;10.40;;;6.00;;
34064;SDS011;20339;49.754;20.158;2024-01-10T08:44:41;12.50;;;6.60;;
34064;SDS011;20339;49.754;20.158;2024-01-10T08:47:13;13.50;;;7.40;;
34064;SDS011;20339;49.754;20.158;2024-01-10T08:49:46;13.00;;;7.30;;
34064;SDS011;20339;49.754;20.158;2024-01-10T08:52:24;14.20;;;7.70;;
34064;SDS011;20339;49.754;20.158;2024-01-10T08:54:59;15.10;;;7.40;;
34064;SDS011;20339;49.754;20.158;2024-01-10T08:57:30;16.50;;;8.80;;
34064;SDS011;20339;49.754;20.158;2024-01-10T09:00:03;13.90;;;7.20;;
34064;SDS011;20339;49.754;20.158;2024-01-10T09:02:40;13.40;;;8.10;;
34064;SDS011;20339;49.754;20.158;2024-01-10T09:05:11;16.30;;;9.10;;
34064;SDS011;20339;49.754;20.158;2024-01-10T09:07:43;17.40;;;9.00;;
34064;SDS011;20339;49.754;20.158;2024-01-10T09:10:19;18.80;;;11.40;;
34064;SDS011;20339;49.754;20.158;2024-01-10T09:12:51;18.60;;;10.80;;
34064;SDS011;20339;49.754;20.158;2024-01-10T09:15:33;19.10;;;10.10;;
34064;SDS011;20339;49.754;20.158;2024-01-10T09:18:06;21.20;;;10.60;;
34064;SDS011;20339;49.754;20.158;2024-01-10T09:20:38;22.10;;;12.20;;
34064;SDS011;20339;49.754;20.158;2024-01-10T09:23:10;21.50;;;12.00;;
34064;SDS011;20339;49.754;20.158;2024-01-10T09:25:44;24.00;;;14.20;;
34064;SDS011;20339;49.754;20.158;2024-01-10T09:28:17;24.20;;;13.30;;
34064;SDS011;20339;49.754;20.158;2024-01-10T09:30:49;26.90;;;14.50;;
34064;SDS011;20339;49.754;20.158;2024-01-10T09:33:24;26.80;;;14.10;;
34064;SDS011;20339;49.754;20.158;2024-01-10T09:36:00;22.90;;;13.00;;
34064;SDS011;20339;49.754;20.158;2024-01-10T09:38:35;23.50;;;13.10;;
34064;SDS011;20339;49.754;20.158;2024-01-10T09:41:09;20.40;;;11.70;;
34064;SDS011;20339;49.754;20.158;2024-01-10T09:43:42;19.00;;;9.70;;
34064;SDS011;20339;49.754;20.158;2024-01-10T09:46:13;18.30;;;9.30;;
34064;SDS011;20339;49.754;20.158;2024-01-10T09:48:51;20.30;;;10.00;;
34064;SDS011;20339;49.754;20.158;2024-01-10T09:51:23;20.10;;;10.20;;
34064;SDS011;20339;49.754;20.158;2024-01-10T09:53:56;17.20;;;8.60;;
34064;SDS011;20339;49.754;20.158;2024-01-10T09:56:33;13.70;;;7.20;;
34064;SDS011;20339;49.754;20.158;2024-01-10T09:59:07;17.40;;;9.00;;
34064;SDS011;20339;49.754;20.158;2024-01-10T10:01:40;15.80;;;6.80;;
34064;SDS011;20339;49.754;20.158;2024-01-10T10:04:12;12.50;;;5.70;;
34064;SDS011;20339;49.754;20.158;2024-01-10T10:06:47;14.20;;;7.90;;
34064;SDS011;20339;49.754;20.158;2024-01-10T10:09:29;12.00;;;6.70;;
34064;SDS011;20339;49.754;20.158;2024-01-10T10:12:00;12.70;;;6.60;;
34064;SDS011;20339;49.754;20.158;2024-01-10T10:14:31;15.80;;;8.10;;
34064;SDS011;20339;49.754;20.158;2024-01-10T10:17:15;15.20;;;7.30;;
34064;SDS011;20339;49.754;20.158;2024-01-10T10:19:50;14.90;;;7.20;;
34064;SDS011;20339;49.754;20.158;2024-01-10T10:22:32;15.60;;;7.80;;
34064;SDS011;20339;49.754;20.158;2024-01-10T10:25:03;18.40;;;8.90;;
34064;SDS011;20339;49.754;20.158;2024-01-10T10:27:37;13.80;;;7.60;;
34064;SDS011;20339;49.754;20.158;2024-01-10T10:30:08;18.20;;;9.20;;
34064;SDS011;20339;49.754;20.158;2024-01-10T10:32:40;12.70;;;6.70;;
34064;SDS011;20339;49.754;20.158;2024-01-10T10:35:12;17.30;;;9.00;;
34064;SDS011;20339;49.754;20.158;2024-01-10T10:37:42;13.50;;;5.90;;
34064;SDS011;20339;49.754;20.158;2024-01-10T10:40:18;18.10;;;9.80;;
34064;SDS011;20339;49.754;20.158;2024-01-10T10:42:52;16.30;;;8.30;;
34064;SDS011;20339;49.754;20.158;2024-01-10T10:45:29;14.80;;;8.30;;
34064;SDS011;20339;49.754;20.158;2024-01-10T10:48:06;16.10;;;7.80;;
34064;SDS011;20339;49.754;20.158;2024-01-10T10:50:40;16.70;;;8.80;;
34064;SDS011;20339;49.754;20.158;2024-01-10T10:53:23;16.90;;;9.60;;
34064;SDS011;20339;49.754;20.158;2024-01-10T10:55:59;17.50;;;9.30;;
34064;SDS011;20339;49.754;20.158;2024-01-10T10:58:34;14.30;;;7.90;;
34064;SDS011;20339;49.754;20.158;2024-01-10T11:01:10;15.60;;;6.90;;
34064;SDS011;20339;49.754;20.158;2024-01-10T11:03:46;9.30;;;4.90;;
34064;SDS011;20339;49.754;20.158;2024-01-10T11:06:18;13.40;;;7.40;;
34064;SDS011;20339;49.754;20.158;2024-01-10T11:08:54;14.30;;;8.00;;
34064;SDS011;20339;49.754;20.158;2024-01-10T11:11:33;12.70;;;6.20;;
34064;SDS011;20339;49.754;20.158;2024-01-10T11:14:27;10.70;;;6.20;;
34064;SDS011;20339;49.754;20.158;2024-01-10T11:17:23;11.40;;;5.40;;
34064;SDS011;20339;49.754;20.158;2024-01-10T11:20:23;9.50;;;5.00;;
34064;SDS011;20339;49.754;20.158;2024-01-10T11:23:13;9.50;;;4.60;;
34064;SDS011;20339;49.754;20.158;2024-01-10T11:26:05;9.50;;;4.10;;
34064;SDS011;20339;49.754;20.158;2024-01-10T11:28:38;13.00;;;6.90;;
34064;SDS011;20339;49.754;20.158;2024-01-10T11:31:10;12.10;;;6.20;;
34064;SDS011;20339;49.754;20.158;2024-01-10T11:33:43;12.80;;;7.00;;
34064;SDS011;20339;49.754;20.158;2024-01-10T11:36:18;13.10;;;6.70;;
34064;SDS011;20339;49.754;20.158;2024-01-10T11:38:54;10.60;;;5.30;;
34064;SDS011;20339;49.754;20.158;2024-01-10T11:41:30;13.00;;;6.50;;
34064;SDS011;20339;49.754;20.158;2024-01-10T11:47:07;11.20;;;6.50;;
34064;SDS011;20339;49.754;20.158;2024-01-10T11:49:39;8.70;;;4.10;;
34064;SDS011;20339;49.754;20.158;2024-01-10T11:52:22;13.70;;;7.40;;
34064;SDS011;20339;49.754;20.158;2024-01-10T11:55:01;15.70;;;6.00;;
34064;SDS011;20339;49.754;20.158;2024-01-10T11:57:35;13.50;;;7.40;;
34064;SDS011;20339;49.754;20.158;2024-01-10T12:00:08;16.50;;;9.10;;
34064;SDS011;20339;49.754;20.158;2024-01-10T12:02:44;16.80;;;9.20;;
34064;SDS011;20339;49.754;20.158;2024-01-10T12:05:17;18.00;;;10.20;;
34064;SDS011;20339;49.754;20.158;2024-01-10T12:07:53;18.80;;;10.30;;
34064;SDS011;20339;49.754;20.158;2024-01-10T12:10:28;13.40;;;7.70;;
34064;SDS011;20339;49.754;20.158;2024-01-10T12:13:06;14.60;;;8.10;;
34064;SDS011;20339;49.754;20.158;2024-01-10T12:15:37;17.10;;;10.10;;
34064;SDS011;20339;49.754;20.158;2024-01-10T12:18:10;17.50;;;10.60;;
34064;SDS011;20339;49.754;20.158;2024-01-10T12:20:42;18.80;;;10.90;;
34064;SDS011;20339;49.754;20.158;2024-01-10T12:23:14;19.50;;;10.50;;
34064;SDS011;20339;49.754;20.158;2024-01-10T12:25:47;18.20;;;10.60;;
34064;SDS011;20339;49.754;20.158;2024-01-10T12:28:23;20.00;;;11.60;;
34064;SDS011;20339;49.754;20.158;2024-01-10T12:30:55;18.30;;;11.20;;
34064;SDS011;20339;49.754;20.158;2024-01-10T12:33:30;20.40;;;10.80;;
34064;SDS011;20339;49.754;20.158;2024-01-10T12:36:10;20.70;;;11.30;;
34064;SDS011;20339;49.754;20.158;2024-01-10T12:38:43;23.20;;;13.50;;
34064;SDS011;20339;49.754;20.158;2024-01-10T12:41:19;27.70;;;16.80;;
34064;SDS011;20339;49.754;20.158;2024-01-10T12:43:58;30.40;;;18.20;;
34064;SDS011;20339;49.754;20.158;2024-01-10T12:46:31;39.00;;;23.50;;
34064;SDS011;20339;49.754;20.158;2024-01-10T12:49:06;35.90;;;22.50;;
34064;SDS011;20339;49.754;20.158;2024-01-10T12:51:38;43.80;;;28.00;;
34064;SDS011;20339;49.754;20.158;2024-01-10T12:54:11;46.40;;;27.90;;
34064;SDS011;20339;49.754;20.158;2024-01-10T12:56:43;49.50;;;28.30;;
34064;SDS011;20339;49.754;20.158;2024-01-10T12:59:16;52.20;;;31.00;;
34064;SDS011;20339;49.754;20.158;2024-01-10T13:01:57;54.80;;;33.80;;
34064;SDS011;20339;49.754;20.158;2024-01-10T13:04:30;62.30;;;36.40;;
34064;SDS011;20339;49.754;20.158;2024-01-10T13:07:04;64.00;;;38.40;;
34064;SDS011;20339;49.754;20.158;2024-01-10T13:09:37;63.30;;;37.40;;
34064;SDS011;20339;49.754;20.158;2024-01-10T13:12:09;64.20;;;37.60;;
34064;SDS011;20339;49.754;20.158;2024-01-10T13:14:41;65.50;;;38.50;;
34064;SDS011;20339;49.754;20.158;2024-01-10T13:17:14;67.60;;;40.30;;
34064;SDS011;20339;49.754;20.158;2024-01-10T13:19:54;63.10;;;38.40;;
34064;SDS011;20339;49.754;20.158;2024-01-10T13:22:28;60.50;;;35.50;;
34064;SDS011;20339;49.754;20.158;2024-01-10T13:25:01;58.40;;;34.90;;
34064;SDS011;20339;49.754;20.158;2024-01-10T13:27:33;58.50;;;35.40;;
34064;SDS011;20339;49.754;20.158;2024-01-10T13:30:07;56.30;;;36.00;;
34064;SDS011;20339;49.754;20.158;2024-01-10T13:32:41;58.00;;;34.80;;
34064;SDS011;20339;49.754;20.158;2024-01-10T13:35:12;51.00;;;32.80;;
34064;SDS011;20339;49.754;20.158;2024-01-10T13:37:48;49.40;;;30.40;;
34064;SDS011;20339;49.754;20.158;2024-01-10T13:40:23;54.70;;;29.90;;
34064;SDS011;20339;49.754;20.158;2024-01-10T13:42:59;52.20;;;31.90;;
34064;SDS011;20339;49.754;20.158;2024-01-10T13:45:31;53.30;;;32.80;;
34064;SDS011;20339;49.754;20.158;2024-01-10T13:48:04;47.10;;;29.70;;
34064;SDS011;20339;49.754;20.158;2024-01-10T13:50:37;47.40;;;28.80;;
34064;SDS011;20339;49.754;20.158;2024-01-10T13:53:08;40.80;;;24.40;;
34064;SDS011;20339;49.754;20.158;2024-01-10T13:55:40;29.40;;;16.70;;
34064;SDS011;20339;49.754;20.158;2024-01-10T13:58:12;27.30;;;16.40;;
34064;SDS011;20339;49.754;20.158;2024-01-10T14:00:45;38.60;;;19.60;;
34064;SDS011;20339;49.754;20.158;2024-01-10T14:03:19;41.10;;;21.40;;
34064;SDS011;20339;49.754;20.158;2024-01-10T14:05:52;45.60;;;24.80;;
34064;SDS011;20339;49.754;20.158;2024-01-10T14:08:24;43.30;;;24.30;;
34064;SDS011;20339;49.754;20.158;2024-01-10T14:10:58;44.00;;;25.60;;
34064;SDS011;20339;49.754;20.158;2024-01-10T14:13:29;48.10;;;27.00;;
34064;SDS011;20339;49.754;20.158;2024-01-10T14:16:00;45.90;;;26.90;;
34064;SDS011;20339;49.754;20.158;2024-01-10T14:18:31;50.80;;;29.30;;
34064;SDS011;20339;49.754;20.158;2024-01-10T14:21:03;50.50;;;28.50;;
34064;SDS011;20339;49.754;20.158;2024-01-10T14:23:35;49.70;;;27.90;;
34064;SDS011;20339;49.754;20.158;2024-01-10T14:26:06;47.40;;;27.10;;
34064;SDS011;20339;49.754;20.158;2024-01-10T14:28:37;59.10;;;28.70;;
34064;SDS011;20339;49.754;20.158;2024-01-10T14:31:08;51.30;;;24.90;;
34064;SDS011;20339;49.754;20.158;2024-01-10T14:33:41;49.90;;;24.70;;
34064;SDS011;20339;49.754;20.158;2024-01-10T14:36:12;49.00;;;22.90;;
34064;SDS011;20339;49.754;20.158;2024-01-10T14:38:46;47.20;;;22.40;;
34064;SDS011;20339;49.754;20.158;2024-01-10T14:41:19;41.30;;;21.20;;
34064;SDS011;20339;49.754;20.158;2024-01-10T14:43:51;31.70;;;16.90;;
34064;SDS011;20339;49.754;20.158;2024-01-10T14:46:24;30.80;;;17.30;;
34064;SDS011;20339;49.754;20.158;2024-01-10T14:48:57;32.00;;;18.30;;
34064;SDS011;20339;49.754;20.158;2024-01-10T14:51:28;29.70;;;17.00;;
34064;SDS011;20339;49.754;20.158;2024-01-10T14:54:03;36.00;;;18.50;;
34064;SDS011;20339;49.754;20.158;2024-01-10T14:56:34;30.80;;;15.70;;
34064;SDS011;20339;49.754;20.158;2024-01-10T14:59:07;28.20;;;15.20;;